Time;durP1;ratioP1;P1;durP2;ratioP2;P2;SDS_P1;SDS_P2;PMS_P1;PMS_P2;Temp;Humidity;BMP_temperature;BMP_pressure;BME280_temperature;BME280_humidity;BME280_pressure;Samples;Min_cycle;Max_cycle;Signal;HPM_P1;HPM_P2
2021/05/18 00:01:53;;;;;;;19.57;17.77;;;11.70;85.50;;;;;;5067554;28;20843;-80
2021/05/18 00:04:19;;;;;;;18.20;17.30;;;11.70;85.40;;;;;;5069290;28;20458;-80
2021/05/18 00:06:48;;;;;;;18.90;17.70;;;11.60;85.70;;;;;;5061120;28;20512;-80
2021/05/18 00:11:55;;;;;;;18.57;17.57;;;11.70;85.40;;;;;;5041314;28;20557;-80
2021/05/18 00:14:24;;;;;;;18.70;17.57;;;11.70;85.60;;;;;;5061249;28;21000;-79
2021/05/18 00:16:54;;;;;;;18.20;17.33;;;11.70;85.80;;;;;;5056423;28;20468;-80
2021/05/18 00:19:21;;;;;;;18.02;17.13;;;11.70;85.70;;;;;;5062795;28;20469;-80
2021/05/18 00:21:48;;;;;;;18.00;17.20;;;11.70;85.40;;;;;;5048865;28;20213;-80
2021/05/18 00:24:15;;;;;;;32.03;20.20;;;11.70;86.00;;;;;;5061919;28;20494;-80
2021/05/18 00:26:42;;;;;;;18.13;17.07;;;11.70;86.20;;;;;;5056643;28;20495;-80
2021/05/18 00:29:09;;;;;;;31.17;19.48;;;11.70;86.10;;;;;;5061602;28;20494;-80
2021/05/18 00:31:35;;;;;;;17.63;16.83;;;11.60;86.50;;;;;;5050811;28;20223;-79
2021/05/18 00:34:03;;;;;;;18.00;17.20;;;11.60;86.90;;;;;;5053910;28;20462;-80
2021/05/18 00:36:29;;;;;;;18.13;17.23;;;11.60;86.70;;;;;;5064583;28;20553;-80
2021/05/18 00:38:56;;;;;;;18.00;17.20;;;11.60;86.60;;;;;;5066898;28;20537;-80
2021/05/18 00:41:22;;;;;;;18.02;17.23;;;11.60;86.10;;;;;;5050685;28;20291;-82
2021/05/18 00:43:49;;;;;;;18.20;17.40;;;11.60;86.20;;;;;;5058428;28;20312;-80
2021/05/18 00:46:15;;;;;;;18.00;17.10;;;11.40;86.60;;;;;;5061478;28;20668;-80
2021/05/18 00:48:56;;;;;;;17.90;17.10;;;11.40;87.90;;;;;;5062905;28;20483;-80
2021/05/18 00:51:24;;;;;;;18.40;17.60;;;11.30;87.70;;;;;;5055480;28;21008;-79
2021/05/18 00:53:51;;;;;;;19.00;18.10;;;11.30;87.50;;;;;;5054004;28;20491;-80
2021/05/18 00:56:32;;;;;;;18.77;17.87;;;11.30;87.40;;;;;;5071205;28;20474;-79
2021/05/18 00:59:01;;;;;;;18.20;17.40;;;11.50;87.20;;;;;;5063241;28;20976;-80
2021/05/18 01:01:28;;;;;;;17.43;16.63;;;11.50;87.30;;;;;;5067792;28;20482;-80
2021/05/18 01:03:55;;;;;;;17.97;17.17;;;11.40;87.50;;;;;;5076326;28;20480;-79
2021/05/18 01:06:28;;;;;;;18.20;17.30;;;11.40;87.30;;;;;;5077827;28;20526;-79
2021/05/18 01:08:57;;;;;;;18.30;17.30;;;11.40;87.40;;;;;;5076979;28;20455;-79
2021/05/18 01:11:25;;;;;;;18.15;17.27;;;11.40;87.20;;;;;;5071934;28;20493;-79
2021/05/18 01:13:57;;;;;;;18.03;17.23;;;11.50;86.90;;;;;;5067971;28;20199;-80
2021/05/18 01:16:26;;;;;;;17.60;16.80;;;11.50;86.80;;;;;;5083316;28;20479;-80
2021/05/18 01:18:53;;;;;;;18.00;17.10;;;11.40;87.00;;;;;;5083672;28;20232;-80
2021/05/18 01:21:21;;;;;;;18.20;17.40;;;11.40;87.30;;;;;;5067297;28;20291;-80
2021/05/18 01:23:47;;;;;;;18.30;17.50;;;11.40;87.50;;;;;;5070551;28;20340;-80
2021/05/18 01:26:15;;;;;;;18.60;17.70;;;11.40;87.40;;;;;;5060354;28;20956;-80
2021/05/18 01:28:42;;;;;;;18.80;17.90;;;11.30;87.90;;;;;;5059502;28;20533;-80
2021/05/18 01:31:10;;;;;;;18.10;17.30;;;11.30;88.10;;;;;;5057460;28;21023;-80
2021/05/18 01:33:37;;;;;;;19.40;18.20;;;11.40;88.20;;;;;;5073653;28;20541;-79
2021/05/18 01:36:08;;;;;;;19.10;17.90;;;11.40;88.10;;;;;;5071000;28;21026;-79
2021/05/18 01:38:40;;;;;;;18.88;17.98;;;11.50;87.80;;;;;;5064034;28;20451;-79
2021/05/18 01:43:51;;;;;;;18.80;18.00;;;11.50;88.70;;;;;;5076883;28;20480;-79
2021/05/18 01:46:20;;;;;;;18.57;17.77;;;11.50;89.10;;;;;;5065688;28;20977;-79
2021/05/18 01:48:52;;;;;;;18.80;17.90;;;11.40;88.90;;;;;;5079342;28;20510;-79
2021/05/18 01:51:18;;;;;;;18.47;17.67;;;11.40;88.80;;;;;;5071264;28;20543;-79
2021/05/18 01:53:46;;;;;;;18.73;17.50;;;11.40;88.80;;;;;;5061198;28;20791;-79
2021/05/18 01:56:31;;;;;;;18.73;17.83;;;11.40;89.30;;;;;;5073416;28;20489;-79
2021/05/18 01:59:02;;;;;;;18.17;17.37;;;11.40;89.30;;;;;;5076582;28;20470;-79
2021/05/18 02:01:29;;;;;;;19.30;18.27;;;11.40;88.70;;;;;;5066154;28;20475;-80
2021/05/18 02:03:55;;;;;;;18.73;17.73;;;11.40;88.60;;;;;;5052905;28;20474;-80
2021/05/18 02:06:22;;;;;;;18.97;18.07;;;11.50;88.20;;;;;;5054107;28;20553;-79
2021/05/18 02:08:49;;;;;;;18.63;17.77;;;11.50;88.20;;;;;;5056122;28;20480;-80
2021/05/18 02:11:16;;;;;;;18.77;17.87;;;11.40;88.90;;;;;;5069807;28;20486;-80
2021/05/18 02:13:46;;;;;;;18.00;17.20;;;11.40;89.20;;;;;;5057446;28;20563;-80
2021/05/18 02:16:17;;;;;;;18.40;17.50;;;11.40;89.30;;;;;;5062028;28;20463;-80
2021/05/18 02:19:00;;;;;;;18.70;17.90;;;11.30;89.30;;;;;;5051720;28;20510;-81
2021/05/18 02:21:47;;;;;;;18.47;17.47;;;11.30;89.40;;;;;;5069081;28;20478;-80
2021/05/18 02:26:58;;;;;;;18.67;17.57;;;11.30;90.90;;;;;;5058975;28;21013;-80
2021/05/18 02:29:25;;;;;;;18.47;17.57;;;11.30;89.80;;;;;;5072080;28;20552;-80
2021/05/18 02:31:54;;;;;;;18.20;17.40;;;11.30;89.10;;;;;;5055704;28;20493;-80
2021/05/18 02:34:20;;;;;;;18.20;17.40;;;11.30;88.80;;;;;;5056430;28;21030;-79
2021/05/18 02:36:47;;;;;;;17.63;16.83;;;11.30;89.00;;;;;;5060484;28;20549;-77
2021/05/18 02:39:14;;;;;;;18.83;17.93;;;11.20;88.50;;;;;;5050863;28;20562;-77
2021/05/18 02:41:41;;;;;;;17.90;17.10;;;11.30;88.40;;;;;;5061178;28;20470;-77
2021/05/18 02:44:11;;;;;;;17.67;16.87;;;11.40;87.50;;;;;;5063994;28;20510;-76
2021/05/18 02:49:23;;;;;;;19.08;17.92;;;11.40;87.30;;;;;;5052997;28;20469;-77
2021/05/18 02:51:50;;;;;;;18.00;17.10;;;11.40;87.20;;;;;;5068694;28;20247;-77
2021/05/18 02:54:21;;;;;;;18.57;17.77;;;11.40;87.60;;;;;;5068199;28;20478;-77
2021/05/18 02:56:51;;;;;;;18.50;17.70;;;11.30;87.70;;;;;;5057751;28;20478;-78
2021/05/18 02:59:18;;;;;;;17.43;16.70;;;11.30;87.70;;;;;;5061377;28;20465;-77
2021/05/18 03:01:48;;;;;;;18.10;17.30;;;11.30;88.00;;;;;;5065640;28;20481;-77
2021/05/18 03:04:14;;;;;;;18.60;17.80;;;11.30;87.60;;;;;;5051257;28;20522;-77
2021/05/18 03:06:41;;;;;;;17.88;17.08;;;11.30;88.30;;;;;;5060355;28;20645;-77
2021/05/18 03:09:11;;;;;;;18.13;17.03;;;11.30;88.30;;;;;;5064862;28;20288;-77
2021/05/18 03:11:39;;;;;;;19.27;18.38;;;11.30;88.70;;;;;;5049712;28;20479;-77
2021/05/18 03:14:07;;;;;;;17.73;16.93;;;11.30;88.50;;;;;;5053844;28;20195;-79
2021/05/18 03:16:35;;;;;;;18.30;17.45;;;11.20;89.00;;;;;;5058899;28;20550;-77
2021/05/18 03:19:01;;;;;;;17.97;17.17;;;11.20;89.00;;;;;;5070176;28;21217;-77
2021/05/18 03:21:28;;;;;;;21.33;20.33;;;11.10;89.20;;;;;;5070530;28;20529;-77
2021/05/18 03:23:55;;;;;;;17.83;17.00;;;11.20;89.00;;;;;;5052689;28;20500;-78
2021/05/18 03:26:21;;;;;;;19.10;17.90;;;11.30;88.20;;;;;;5056813;28;20474;-77
2021/05/18 03:28:56;;;;;;;21.02;19.60;;;11.20;88.10;;;;;;5064925;28;20455;-77
2021/05/18 03:36:51;;;;;;;18.67;17.67;;;11.10;88.40;;;;;;5078152;28;20519;-80
2021/05/18 03:39:17;;;;;;;18.90;18.00;;;11.10;88.40;;;;;;5082347;28;20192;-80
2021/05/18 03:41:53;;;;;;;59.80;25.25;;;11.10;88.40;;;;;;5072011;28;20550;-80
2021/05/18 03:44:27;;;;;;;19.33;18.43;;;11.00;88.90;;;;;;5068564;28;20719;-80
2021/05/18 03:52:25;;;;;;;17.83;17.02;;;10.90;90.00;;;;;;5067273;28;20273;-79
2021/05/18 03:55:01;;;;;;;29.73;23.85;;;10.90;90.10;;;;;;5070935;28;20670;-80
2021/05/18 04:03:06;;;;;;;21.15;20.05;;;11.00;89.30;;;;;;5053537;28;20222;-79
2021/05/18 04:11:42;;;;;;;21.20;19.80;;;11.20;87.10;;;;;;5073190;28;20203;-80
2021/05/18 04:16:54;;;;;;;19.70;18.70;;;11.20;86.00;;;;;;5057818;28;20209;-80
2021/05/18 04:19:23;;;;;;;19.93;18.83;;;11.30;86.00;;;;;;5052146;28;20205;-79
2021/05/18 04:22:05;;;;;;;20.90;19.90;;;11.40;85.80;;;;;;5062070;28;20547;-80
2021/05/18 04:25:13;;;;;;;21.55;19.90;;;11.40;86.20;;;;;;5063269;28;20535;-80
2021/05/18 04:52:28;;;;;;;23.40;21.90;;;11.60;84.20;;;;;;5054433;28;20500;-79
2021/05/18 05:00:45;;;;;;;22.40;21.10;;;11.70;84.40;;;;;;5051011;28;20456;-78
2021/05/18 05:08:58;;;;;;;21.00;19.90;;;11.70;84.40;;;;;;5050273;28;20560;-76
2021/05/18 05:14:21;;;;;;;21.50;20.40;;;11.80;84.20;;;;;;5067625;28;20473;-75
2021/05/18 05:16:48;;;;;;;21.63;20.53;;;11.90;83.40;;;;;;5065854;28;20458;-75
2021/05/18 05:19:15;;;;;;;22.73;21.63;;;11.90;83.80;;;;;;5049379;28;20509;-75
2021/05/18 05:21:42;;;;;;;22.13;21.03;;;11.90;84.00;;;;;;5054877;28;20482;-75
2021/05/18 05:24:10;;;;;;;21.67;20.57;;;11.90;83.70;;;;;;5062884;28;20485;-75
2021/05/18 05:26:38;;;;;;;20.60;19.60;;;11.90;83.90;;;;;;5057333;28;20453;-75
2021/05/18 05:29:06;;;;;;;21.90;20.80;;;11.90;84.20;;;;;;5063351;28;20199;-75
2021/05/18 05:31:33;;;;;;;20.83;19.83;;;11.80;84.70;;;;;;5056974;28;20514;-73
2021/05/18 05:33:59;;;;;;;20.20;19.20;;;11.80;85.00;;;;;;5049607;28;20455;-74
2021/05/18 05:36:26;;;;;;;141.33;35.23;;;11.90;85.10;;;;;;5059467;28;21045;-75
2021/05/18 05:39:00;;;;;;;20.60;19.57;;;11.90;85.20;;;;;;5064840;28;20477;-74
2021/05/18 05:41:27;;;;;;;20.20;19.20;;;11.90;85.60;;;;;;5051293;28;20548;-74
2021/05/18 05:43:53;;;;;;;21.90;20.57;;;11.90;85.40;;;;;;5056545;28;20475;-75
2021/05/18 05:46:20;;;;;;;20.80;19.80;;;11.80;86.20;;;;;;5047194;28;20463;-74
2021/05/18 05:48:52;;;;;;;21.60;20.20;;;11.80;86.30;;;;;;5052749;28;20563;-75
2021/05/18 05:51:20;;;;;;;20.80;19.53;;;12.00;85.90;;;;;;5054746;28;20477;-76
2021/05/18 05:53:47;;;;;;;23.37;21.17;;;12.10;85.40;;;;;;5058884;28;20541;-75
2021/05/18 05:56:16;;;;;;;21.87;20.67;;;12.10;85.00;;;;;;5050670;28;20463;-78
2021/05/18 05:58:43;;;;;;;21.40;19.90;;;12.10;85.40;;;;;;5058102;28;20471;-78
2021/05/18 06:01:10;;;;;;;22.33;21.27;;;12.10;85.80;;;;;;5059900;28;20510;-78
2021/05/18 06:03:37;;;;;;;21.80;20.60;;;12.20;86.00;;;;;;5054893;28;21185;-76
2021/05/18 06:06:04;;;;;;;19.87;18.87;;;12.00;87.00;;;;;;5061527;28;20486;-76
2021/05/18 06:08:31;;;;;;;26.03;20.97;;;11.80;87.90;;;;;;5064642;28;21009;-75
2021/05/18 06:11:02;;;;;;;21.13;19.93;;;11.80;88.60;;;;;;5066731;28;20565;-75
2021/05/18 06:41:18;;;;;;;21.80;20.23;;;12.50;90.10;;;;;;4994485;28;21122;-76
2021/05/18 06:45:41;;;;;;;22.77;20.70;;;12.80;87.50;;;;;;5051914;28;20981;-76
2021/05/18 06:46:51;;;;;;;45.40;23.67;;;13.10;89.10;;;;;;5050366;28;20546;-76
2021/05/18 06:49:17;;;;;;;46.67;24.43;;;13.50;88.20;;;;;;5055952;28;20553;-78
2021/05/18 06:51:44;;;;;;;24.30;22.50;;;13.70;85.00;;;;;;5060912;28;20485;-76
2021/05/18 06:54:10;;;;;;;37.30;24.53;;;13.90;83.20;;;;;;5051521;28;20470;-76
2021/05/18 06:56:38;;;;;;;59.90;27.00;;;14.10;82.70;;;;;;5065418;28;20458;-78
2021/05/18 07:01:53;;;;;;;27.73;24.50;;;14.60;81.40;;;;;;5053524;28;20465;-78
2021/05/18 07:04:20;;;;;;;40.47;25.13;;;14.80;81.60;;;;;;5058011;28;20473;-76
2021/05/18 07:06:48;;;;;;;24.60;23.13;;;14.90;79.70;;;;;;5055224;28;20554;-76
2021/05/18 07:09:15;;;;;;;27.00;24.10;;;14.90;78.30;;;;;;5055681;28;20513;-79
2021/05/18 07:11:41;;;;;;;67.07;30.07;;;15.00;77.70;;;;;;5057320;28;21104;-78
2021/05/18 07:14:08;;;;;;;27.17;24.70;;;14.90;77.80;;;;;;5058378;28;20529;-79
2021/05/18 07:16:35;;;;;;;50.07;28.90;;;14.90;78.30;;;;;;5062354;28;20895;-78
2021/05/18 07:19:03;;;;;;;27.20;25.10;;;14.80;77.20;;;;;;5067766;28;20465;-78
2021/05/18 07:21:30;;;;;;;25.97;24.27;;;14.90;76.40;;;;;;5065302;28;20495;-78
2021/05/18 07:23:56;;;;;;;25.50;23.90;;;15.10;76.10;;;;;;5062277;28;20470;-78
2021/05/18 07:26:23;;;;;;;29.80;27.33;;;15.30;75.50;;;;;;5063009;28;20451;-78
2021/05/18 07:28:49;;;;;;;30.87;29.00;;;15.40;75.40;;;;;;5057577;28;20563;-75
2021/05/18 07:31:16;;;;;;;26.67;24.80;;;15.80;73.20;;;;;;5065087;28;20480;-78
2021/05/18 07:33:42;;;;;;;28.00;26.20;;;15.80;72.90;;;;;;5074848;28;20451;-80
2021/05/18 07:36:10;;;;;;;30.13;27.47;;;15.90;72.90;;;;;;5055752;28;20861;-79
2021/05/18 07:38:38;;;;;;;44.93;32.27;;;15.80;71.50;;;;;;5067506;28;20628;-78
2021/05/18 07:41:05;;;;;;;43.13;28.70;;;16.00;71.40;;;;;;5071391;28;20487;-79
2021/05/18 07:43:32;;;;;;;35.47;31.70;;;16.00;72.20;;;;;;5061746;28;20540;-78
2021/05/18 07:45:59;;;;;;;31.40;28.07;;;16.10;71.10;;;;;;5056817;28;20516;-80
2021/05/18 07:48:31;;;;;;;26.83;24.97;;;15.90;72.40;;;;;;5062852;28;20455;-80
2021/05/18 07:59:19;;;;;;;28.13;25.80;;;15.40;72.40;;;;;;5075160;28;20922;-82
2021/05/18 08:07:16;;;;;;;29.20;26.80;;;15.30;71.50;;;;;;5071055;28;20537;-82
2021/05/18 08:09:46;;;;;;;25.23;23.83;;;15.40;71.20;;;;;;5065463;28;21248;-79
2021/05/18 08:12:13;;;;;;;25.27;23.80;;;15.50;70.40;;;;;;5063743;28;21297;-79
2021/05/18 08:14:43;;;;;;;27.20;25.03;;;15.10;70.90;;;;;;5071676;28;21090;-80
2021/05/18 08:17:21;;;;;;;27.10;24.67;;;15.10;71.80;;;;;;5071019;28;20485;-80
2021/05/18 08:48:56;;;;;;;574.73;87.93;;;16.10;75.40;;;;;;5072729;28;20441;-82
2021/05/18 10:27:56;;;;;;;38.00;27.70;;;16.10;73.60;;;;;;5061230;28;20464;-78
2021/05/18 10:35:51;;;;;;;25.77;24.00;;;16.30;71.50;;;;;;5059458;28;20462;-79
2021/05/18 10:38:20;;;;;;;25.80;24.30;;;16.40;70.30;;;;;;5059245;28;20940;-80
2021/05/18 10:40:48;;;;;;;33.37;30.80;;;16.50;68.80;;;;;;5078096;28;20458;-78
2021/05/18 10:43:32;;;;;;;26.13;24.20;;;16.70;69.50;;;;;;5074452;28;20465;-79
2021/05/18 10:46:18;;;;;;;25.27;23.77;;;17.00;69.90;;;;;;5057239;28;20509;-78
2021/05/18 10:49:13;;;;;;;25.43;23.80;;;17.30;67.10;;;;;;5056065;28;20459;-79
2021/05/18 10:51:53;;;;;;;27.80;25.33;;;17.40;66.20;;;;;;5064026;28;21007;-78
2021/05/18 10:54:24;;;;;;;25.70;24.00;;;17.40;64.80;;;;;;5057058;28;20955;-79
2021/05/18 10:57:09;;;;;;;24.90;23.50;;;17.60;64.00;;;;;;5060065;28;21290;-78
2021/05/18 10:59:38;;;;;;;26.30;24.70;;;17.60;60.00;;;;;;5055877;28;20908;-78
2021/05/18 11:02:11;;;;;;;37.50;26.80;;;17.70;59.40;;;;;;5063988;28;20479;-78
2021/05/18 11:04:40;;;;;;;26.80;25.00;;;17.90;58.80;;;;;;5065455;28;20847;-78
2021/05/18 11:07:09;;;;;;;25.73;24.13;;;17.90;56.30;;;;;;5059693;28;20545;-76
2021/05/18 11:09:36;;;;;;;27.77;25.73;;;17.50;57.50;;;;;;5062783;28;20466;-76
2021/05/18 11:12:09;;;;;;;26.60;24.43;;;17.50;58.30;;;;;;5065504;28;20563;-77
2021/05/18 11:14:41;;;;;;;26.47;24.57;;;17.50;57.10;;;;;;5065110;28;20543;-77
2021/05/18 11:17:09;;;;;;;25.20;23.80;;;17.50;57.80;;;;;;5051677;28;20532;-77
2021/05/18 11:19:50;;;;;;;26.17;24.43;;;17.60;57.50;;;;;;5059925;28;20455;-76
2021/05/18 11:22:19;;;;;;;30.00;27.53;;;17.50;56.50;;;;;;5055702;28;21024;-78
2021/05/18 11:24:49;;;;;;;25.90;24.40;;;17.60;57.90;;;;;;5058428;28;20502;-77
2021/05/18 11:27:27;;;;;;;25.50;23.80;;;17.90;54.70;;;;;;5063796;28;20491;-78
2021/05/18 11:29:53;;;;;;;25.50;24.10;;;17.90;54.70;;;;;;5068163;28;20547;-79
2021/05/18 11:32:20;;;;;;;25.87;24.27;;;18.00;54.90;;;;;;5051477;28;20648;-76
2021/05/18 11:35:06;;;;;;;26.50;24.80;;;17.80;54.10;;;;;;5047801;28;20971;-77
2021/05/18 11:37:32;;;;;;;25.23;23.83;;;18.00;56.20;;;;;;5066618;28;20457;-81
2021/05/18 11:40:13;;;;;;;25.87;24.03;;;17.80;53.30;;;;;;5066168;28;20797;-79
2021/05/18 11:42:40;;;;;;;26.17;24.67;;;17.40;55.60;;;;;;5064394;28;20479;-78
2021/05/18 11:45:16;;;;;;;26.20;24.63;;;17.40;57.10;;;;;;5070447;28;20562;-79
2021/05/18 11:47:43;;;;;;;26.60;25.10;;;17.20;61.50;;;;;;5068103;28;20461;-79
2021/05/18 11:50:22;;;;;;;27.67;25.80;;;16.10;62.50;;;;;;5069487;28;20537;-79
2021/05/18 11:52:49;;;;;;;26.60;24.90;;;15.30;68.30;;;;;;5071271;28;20534;-78
2021/05/18 11:55:22;;;;;;;27.03;24.73;;;15.10;68.60;;;;;;5081347;28;20462;-81
2021/05/18 11:57:52;;;;;;;25.47;23.97;;;15.30;72.10;;;;;;5081827;28;20541;-80
2021/05/18 12:00:20;;;;;;;27.00;25.00;;;15.70;71.40;;;;;;5081676;28;20474;-80
2021/05/18 12:02:47;;;;;;;28.27;25.93;;;15.90;71.10;;;;;;5076070;28;20494;-79
2021/05/18 12:05:14;;;;;;;31.47;28.33;;;16.40;69.60;;;;;;5078246;28;20459;-79
2021/05/18 12:07:41;;;;;;;46.00;30.80;;;16.60;69.90;;;;;;5075956;28;20470;-80
2021/05/18 12:10:08;;;;;;;27.40;25.37;;;16.80;70.60;;;;;;5072955;28;20446;-76
2021/05/18 12:12:38;;;;;;;25.73;23.93;;;17.20;69.10;;;;;;5066394;28;20980;-81
2021/05/18 12:15:09;;;;;;;26.50;24.57;;;17.50;67.60;;;;;;5066551;28;20499;-79
2021/05/18 12:17:36;;;;;;;29.43;26.43;;;17.80;65.10;;;;;;5067369;28;20473;-79
2021/05/18 12:20:13;;;;;;;25.80;24.20;;;18.00;65.50;;;;;;5066894;28;20453;-79
2021/05/18 12:22:41;;;;;;;27.20;25.10;;;18.10;63.70;;;;;;5065009;28;20473;-80
2021/05/18 12:25:09;;;;;;;26.80;25.27;;;18.10;63.40;;;;;;5065117;28;20477;-82
2021/05/18 12:27:44;;;;;;;25.80;24.30;;;18.20;61.00;;;;;;5064356;28;20483;-77
2021/05/18 12:30:12;;;;;;;24.37;23.07;;;17.90;57.90;;;;;;5069620;28;20468;-78
2021/05/18 12:32:47;;;;;;;30.70;27.47;;;17.80;58.50;;;;;;5068243;28;20484;-79
2021/05/18 12:35:18;;;;;;;24.97;23.27;;;17.70;60.30;;;;;;5072596;28;20489;-79
2021/05/18 12:37:47;;;;;;;26.57;24.10;;;17.90;57.40;;;;;;5056494;28;20536;-79
2021/05/18 12:40:16;;;;;;;26.00;24.23;;;17.90;57.50;;;;;;5065376;28;20459;-78
2021/05/18 12:42:44;;;;;;;25.87;24.37;;;18.20;58.10;;;;;;5064368;28;20483;-80
2021/05/18 12:45:20;;;;;;;28.13;25.73;;;18.10;56.20;;;;;;5058007;28;20509;-80
2021/05/18 12:47:51;;;;;;;25.40;24.00;;;18.00;57.40;;;;;;5069271;28;20450;-79
2021/05/18 12:50:18;;;;;;;26.70;25.10;;;18.10;57.00;;;;;;5067679;28;20450;-79
2021/05/18 12:52:47;;;;;;;25.70;24.10;;;17.90;56.90;;;;;;5060404;28;20485;-79
2021/05/18 12:55:25;;;;;;;26.13;24.63;;;17.70;55.80;;;;;;5055859;28;20459;-79
2021/05/18 12:57:54;;;;;;;26.00;24.50;;;17.20;56.20;;;;;;5063603;28;20463;-78
2021/05/18 13:00:28;;;;;;;26.10;24.40;;;17.00;58.70;;;;;;5053092;28;20454;-79
2021/05/18 13:02:55;;;;;;;25.60;24.10;;;17.00;62.60;;;;;;5062843;28;20491;-79
2021/05/18 13:05:26;;;;;;;26.80;25.30;;;17.00;63.60;;;;;;5063835;28;20451;-81
2021/05/18 13:08:22;;;;;;;25.80;24.40;;;16.90;63.00;;;;;;5067436;28;20462;-80
2021/05/18 13:10:55;;;;;;;28.00;25.70;;;17.00;64.00;;;;;;4985637;28;20651;-80
2021/05/18 13:13:23;;;;;;;27.50;25.67;;;17.00;63.30;;;;;;5052347;28;20462;-79
2021/05/18 13:15:52;;;;;;;28.27;26.17;;;17.00;62.90;;;;;;5067220;28;20543;-79
2021/05/18 13:18:19;;;;;;;25.50;24.10;;;17.10;62.90;;;;;;5062600;28;20446;-79
2021/05/18 13:20:49;;;;;;;26.60;24.93;;;17.30;62.30;;;;;;5068514;28;21163;-81
2021/05/18 13:23:25;;;;;;;26.03;24.53;;;17.40;61.70;;;;;;5067956;28;20450;-78
2021/05/18 13:28:38;;;;;;;48.27;28.70;;;17.90;61.40;;;;;;5063372;28;20537;-77
2021/05/18 13:31:09;;;;;;;27.33;25.50;;;18.30;60.20;;;;;;5063762;28;20548;-78
2021/05/18 13:33:36;;;;;;;26.83;25.43;;;18.60;58.40;;;;;;5065308;28;21070;-78
2021/05/18 13:36:03;;;;;;;26.00;24.60;;;18.80;56.50;;;;;;5065127;28;20504;-78
2021/05/18 13:38:33;;;;;;;26.97;25.57;;;19.00;55.30;;;;;;5060662;28;20470;-78
2021/05/18 13:40:59;;;;;;;25.97;24.67;;;19.20;53.60;;;;;;5063529;28;20455;-79
2021/05/18 13:43:26;;;;;;;25.20;23.90;;;19.30;50.10;;;;;;5052936;28;20482;-79
2021/05/18 13:45:53;;;;;;;28.47;25.53;;;19.10;49.60;;;;;;5069179;28;20533;-79
2021/05/18 13:48:20;;;;;;;26.13;24.40;;;19.00;51.70;;;;;;5058162;28;20470;-80
2021/05/18 13:50:47;;;;;;;26.57;24.77;;;19.20;50.40;;;;;;5058358;28;20462;-78
2021/05/18 13:53:13;;;;;;;26.60;25.00;;;19.30;52.70;;;;;;5066118;28;20505;-79
2021/05/18 13:55:43;;;;;;;26.87;25.27;;;19.20;52.70;;;;;;5060124;28;20462;-80
2021/05/18 13:58:09;;;;;;;25.33;23.83;;;19.10;54.00;;;;;;5065482;28;20453;-79
2021/05/18 14:00:35;;;;;;;29.03;26.63;;;18.90;55.10;;;;;;5058358;28;21271;-80
2021/05/18 14:03:03;;;;;;;27.00;25.40;;;18.50;56.80;;;;;;5065173;28;20492;-80
2021/05/18 14:05:31;;;;;;;26.10;24.50;;;18.20;57.50;;;;;;5068979;28;20937;-81
2021/05/18 14:08:28;;;;;;;25.37;23.40;;;17.80;58.40;;;;;;5056223;28;20979;-84
2021/05/18 14:10:57;;;;;;;26.80;25.10;;;17.20;62.70;;;;;;5064182;28;20547;-81
2021/05/18 14:13:25;;;;;;;27.23;25.20;;;15.60;63.70;;;;;;5049493;28;20940;-80
2021/05/18 14:15:52;;;;;;;25.07;23.67;;;14.50;68.20;;;;;;5049618;28;20493;-82
2021/05/18 14:18:19;;;;;;;24.40;23.07;;;14.00;70.20;;;;;;5055651;28;20991;-80
2021/05/18 14:20:46;;;;;;;25.73;24.00;;;13.90;71.40;;;;;;5064833;28;20917;-81
2021/05/18 14:23:12;;;;;;;25.90;24.43;;;14.00;70.40;;;;;;5058409;28;20459;-82
2021/05/18 14:25:40;;;;;;;26.73;25.17;;;14.30;71.50;;;;;;5067375;28;20529;-82
2021/05/18 14:28:07;;;;;;;24.93;23.23;;;14.80;71.60;;;;;;5063150;28;20883;-78
2021/05/18 14:30:34;;;;;;;24.37;22.87;;;15.30;69.40;;;;;;5051855;28;20519;-78
2021/05/18 14:33:00;;;;;;;25.53;24.23;;;15.90;69.70;;;;;;5049549;28;20565;-78
2021/05/18 14:35:29;;;;;;;25.23;23.73;;;16.30;65.90;;;;;;5052881;28;20451;-82
2021/05/18 14:38:03;;;;;;;27.13;25.50;;;16.50;65.70;;;;;;5049910;28;20490;-78
2021/05/18 14:46:10;;;;;;;26.53;25.07;;;17.00;59.90;;;;;;5012048;28;20485;-78
2021/05/18 14:54:14;;;;;;;26.17;24.67;;;17.10;58.70;;;;;;5064866;28;20441;-79
2021/05/18 14:56:41;;;;;;;39.43;25.87;;;17.20;59.80;;;;;;5061224;28;20465;-78
2021/05/18 14:59:07;;;;;;;34.40;24.90;;;17.30;58.30;;;;;;5060478;28;21198;-78
2021/05/18 15:01:34;;;;;;;25.30;23.37;;;17.60;58.40;;;;;;5066283;28;20844;-83
2021/05/18 15:04:01;;;;;;;24.23;22.50;;;17.90;57.70;;;;;;5058669;28;20483;-80
2021/05/18 15:06:27;;;;;;;26.00;24.30;;;17.90;57.10;;;;;;5060725;28;20454;-79
2021/05/18 15:09:00;;;;;;;25.70;24.10;;;17.90;56.80;;;;;;5050079;28;20876;-80
2021/05/18 15:11:27;;;;;;;40.53;24.50;;;17.80;57.10;;;;;;5066380;28;20537;-79
2021/05/18 15:13:54;;;;;;;24.80;23.40;;;17.90;56.70;;;;;;5050893;28;21146;-79
2021/05/18 15:16:21;;;;;;;25.20;23.70;;;17.70;56.10;;;;;;5052966;28;20541;-77
2021/05/18 15:18:51;;;;;;;25.70;24.00;;;17.60;57.60;;;;;;5048699;28;21011;-77
2021/05/18 15:21:17;;;;;;;28.47;25.80;;;17.50;57.80;;;;;;5053120;28;20558;-75
2021/05/18 15:23:44;;;;;;;37.77;25.60;;;17.70;58.30;;;;;;5064979;28;20472;-76
2021/05/18 15:26:11;;;;;;;24.70;23.30;;;18.10;57.90;;;;;;5060922;28;20476;-75
2021/05/18 15:28:42;;;;;;;25.17;23.40;;;18.30;55.50;;;;;;5050270;28;20972;-77
2021/05/18 15:31:09;;;;;;;25.83;24.53;;;18.70;56.40;;;;;;5068040;28;20518;-76
2021/05/18 15:33:36;;;;;;;27.00;25.23;;;19.00;53.60;;;;;;5060491;28;20461;-77
2021/05/18 15:36:04;;;;;;;25.40;23.63;;;19.00;52.90;;;;;;5066274;28;20473;-78
2021/05/18 15:38:37;;;;;;;24.70;23.30;;;18.60;52.50;;;;;;5052394;28;20538;-77
2021/05/18 15:41:04;;;;;;;26.67;25.03;;;18.20;53.80;;;;;;5053025;28;20482;-76
2021/05/18 15:43:30;;;;;;;26.47;24.97;;;17.80;55.50;;;;;;5049997;28;20474;-77
2021/05/18 15:45:58;;;;;;;41.13;28.13;;;17.70;55.90;;;;;;5065213;28;20540;-76
2021/05/18 15:48:24;;;;;;;24.43;23.13;;;17.80;56.50;;;;;;5055347;28;20458;-76
2021/05/18 15:50:51;;;;;;;24.40;23.20;;;17.80;55.20;;;;;;5067603;28;20852;-76
2021/05/18 15:53:18;;;;;;;26.17;24.40;;;17.60;56.40;;;;;;5053189;28;20467;-76
2021/05/18 15:55:45;;;;;;;23.93;22.63;;;17.80;56.10;;;;;;5065156;28;20476;-77
2021/05/18 15:58:11;;;;;;;25.77;24.37;;;18.20;55.20;;;;;;5060800;28;20551;-78
2021/05/18 16:00:38;;;;;;;26.83;24.60;;;17.90;55.90;;;;;;5051479;28;20905;-78
2021/05/18 16:03:06;;;;;;;29.47;26.30;;;17.80;56.70;;;;;;5048026;28;20485;-77
2021/05/18 16:05:32;;;;;;;41.80;29.30;;;17.40;57.80;;;;;;5046170;28;20821;-78
2021/05/18 16:08:06;;;;;;;24.40;23.07;;;17.20;57.80;;;;;;5053791;28;20496;-78
2021/05/18 16:10:33;;;;;;;25.50;23.37;;;17.00;57.30;;;;;;5058792;28;21058;-75
2021/05/18 16:13:00;;;;;;;23.90;22.53;;;16.70;58.60;;;;;;5050111;28;20474;-82
2021/05/18 16:15:27;;;;;;;24.80;23.10;;;16.40;60.60;;;;;;5054451;28;20486;-78
2021/05/18 16:17:54;;;;;;;24.50;23.20;;;15.50;61.70;;;;;;5047521;28;20550;-79
2021/05/18 16:20:24;;;;;;;25.30;23.70;;;14.80;64.40;;;;;;5046936;28;20522;-77
2021/05/18 16:22:50;;;;;;;24.10;22.80;;;14.40;66.60;;;;;;5058448;28;20999;-78
2021/05/18 16:25:18;;;;;;;24.30;22.90;;;14.10;67.80;;;;;;5057824;28;20479;-81
2021/05/18 16:27:45;;;;;;;58.03;25.93;;;13.90;68.70;;;;;;5057498;28;20493;-78
2021/05/18 16:30:14;;;;;;;32.07;25.27;;;13.90;71.30;;;;;;5063263;28;20458;-77
2021/05/18 16:32:43;;;;;;;62.43;26.33;;;13.90;73.10;;;;;;5066875;28;20482;-78
2021/05/18 16:35:12;;;;;;;31.67;24.10;;;14.20;74.00;;;;;;5066689;28;20450;-78
2021/05/18 16:37:40;;;;;;;24.80;23.10;;;14.30;74.70;;;;;;5062955;28;20524;-78
2021/05/18 16:40:08;;;;;;;27.67;24.13;;;14.30;75.70;;;;;;5048931;28;20476;-78
2021/05/18 16:42:37;;;;;;;26.73;23.83;;;14.40;76.30;;;;;;5051361;28;20482;-78
2021/05/18 16:45:06;;;;;;;24.80;23.30;;;14.50;76.40;;;;;;5053087;28;20494;-78
2021/05/18 16:47:34;;;;;;;64.73;30.50;;;14.60;76.50;;;;;;5056713;28;20542;-78
2021/05/18 16:50:01;;;;;;;24.93;23.33;;;14.70;75.60;;;;;;5051850;28;20442;-78
2021/05/18 16:52:27;;;;;;;26.00;24.40;;;14.60;74.40;;;;;;5058299;28;20485;-78
2021/05/18 16:54:54;;;;;;;26.97;25.37;;;14.40;74.40;;;;;;5060954;28;20454;-77
2021/05/18 16:57:21;;;;;;;26.03;23.93;;;14.20;76.30;;;;;;5050745;28;20541;-78
2021/05/18 16:59:47;;;;;;;25.53;23.50;;;14.20;78.30;;;;;;5055641;28;20446;-78
2021/05/18 17:02:14;;;;;;;23.87;22.07;;;14.30;78.20;;;;;;5053435;28;20485;-78